createdAt,value
2022-12-20T00:01:21.348Z,8.02
2022-12-20T00:03:51.230Z,7.47
2022-12-20T00:06:18.689Z,9.07
2022-12-20T00:08:46.178Z,8.55
2022-12-20T00:11:13.336Z,7.60
2022-12-20T00:13:40.106Z,9.52
2022-12-20T00:16:16.279Z,9.10
2022-12-20T00:18:43.638Z,8.80
2022-12-20T00:21:12.970Z,7.22
2022-12-20T00:23:40.098Z,8.68
2022-12-20T00:26:09.563Z,6.70
2022-12-20T00:28:36.946Z,5.65
2022-12-20T00:31:05.435Z,5.90
2022-12-20T00:33:33.110Z,7.60
2022-12-20T00:35:59.716Z,6.38
2022-12-20T00:38:27.122Z,6.65
2022-12-20T00:41:00.326Z,9.48
2022-12-20T00:43:27.416Z,8.32
2022-12-20T00:45:53.947Z,6.50
2022-12-20T00:48:20.604Z,6.25
2022-12-20T00:50:47.496Z,6.75
2022-12-20T00:53:14.095Z,5.47
2022-12-20T00:55:45.729Z,7.53
2022-12-20T00:58:13.247Z,6.22
2022-12-20T01:00:40.335Z,7.28
2022-12-20T01:03:07.855Z,7.00
2022-12-20T01:05:34.598Z,6.53
2022-12-20T01:08:01.144Z,6.53
2022-12-20T01:10:27.797Z,7.95
2022-12-20T01:12:54.375Z,6.78
2022-12-20T01:15:21.425Z,6.38
2022-12-20T01:17:48.245Z,7.13
2022-12-20T01:20:14.852Z,7.53
2022-12-20T01:22:47.233Z,5.90
2022-12-20T01:25:14.237Z,7.45
2022-12-20T01:27:40.831Z,9.85
2022-12-20T01:30:08.211Z,6.28
2022-12-20T01:32:34.753Z,6.97
2022-12-20T01:35:01.244Z,8.18
2022-12-20T01:37:27.742Z,6.45
2022-12-20T01:39:54.199Z,7.15
2022-12-20T01:42:21.059Z,8.07
2022-12-20T01:44:58.685Z,7.32
2022-12-20T01:47:26.717Z,6.75
2022-12-20T01:49:56.601Z,6.25
2022-12-20T01:52:45.261Z,8.80
2022-12-20T01:55:25.162Z,8.32
2022-12-20T01:58:02.443Z,8.65
2022-12-20T02:00:29.595Z,6.45
2022-12-20T02:02:59.498Z,9.00
2022-12-20T02:05:26.407Z,7.75
2022-12-20T02:07:55.375Z,7.57
2022-12-20T02:10:26.925Z,7.43
2022-12-20T02:13:05.364Z,7.78
2022-12-20T02:16:04.356Z,7.50
2022-12-20T02:18:50.805Z,8.00
2022-12-20T02:21:35.156Z,8.65
2022-12-20T02:24:10.652Z,7.50
2022-12-20T02:27:00.277Z,7.32
2022-12-20T02:29:35.798Z,8.90
2022-12-20T02:32:17.204Z,7.32
2022-12-20T02:34:44.642Z,7.70
2022-12-20T02:37:11.180Z,8.63
2022-12-20T02:39:40.556Z,9.38
2022-12-20T02:42:12.182Z,9.02
2022-12-20T02:45:07.344Z,9.15
2022-12-20T02:47:39.083Z,7.85
2022-12-20T02:50:07.687Z,7.05
2022-12-20T02:52:35.579Z,8.30
2022-12-20T02:55:04.571Z,8.10
2022-12-20T02:57:42.817Z,9.10
2022-12-20T03:00:16.611Z,7.10
2022-12-20T03:03:04.601Z,8.43
2022-12-20T03:05:33.606Z,6.78
2022-12-20T03:08:00.599Z,8.00
2022-12-20T03:10:27.455Z,7.20
2022-12-20T03:12:53.916Z,8.82
2022-12-20T03:15:20.451Z,8.70
2022-12-20T03:17:46.988Z,9.00
2022-12-20T03:20:13.674Z,8.63
2022-12-20T03:22:40.253Z,9.00
2022-12-20T03:25:07.319Z,7.82
2022-12-20T03:27:33.992Z,8.20
2022-12-20T03:30:00.561Z,8.85
2022-12-20T03:32:27.130Z,8.40
2022-12-20T03:34:53.611Z,7.68
2022-12-20T03:37:20.210Z,9.35
2022-12-20T03:39:46.800Z,9.45
2022-12-20T03:42:13.539Z,10.68
2022-12-20T03:44:40.139Z,10.05
2022-12-20T03:47:06.657Z,7.68
2022-12-20T03:49:33.207Z,7.82
2022-12-20T03:51:59.718Z,9.82
2022-12-20T03:54:26.388Z,7.88
2022-12-20T03:56:52.930Z,6.80
2022-12-20T03:59:19.395Z,7.82
2022-12-20T04:01:45.979Z,6.60
2022-12-20T04:04:14.667Z,7.82
2022-12-20T04:06:41.891Z,9.18
2022-12-20T04:09:08.438Z,8.82
2022-12-20T04:11:34.963Z,7.90
2022-12-20T04:14:01.510Z,9.10
2022-12-20T04:16:30.157Z,7.30
2022-12-20T04:18:56.853Z,6.55
2022-12-20T04:21:25.524Z,6.78
2022-12-20T04:23:52.616Z,8.27
2022-12-20T04:26:19.284Z,9.18
2022-12-20T04:28:45.861Z,9.68
2022-12-20T04:31:13.032Z,6.90
2022-12-20T04:33:41.657Z,8.30
2022-12-20T04:36:08.204Z,8.02
2022-12-20T04:38:35.073Z,7.75
2022-12-20T04:41:01.879Z,8.55
2022-12-20T04:43:29.085Z,7.90
2022-12-20T04:45:56.427Z,7.38
2022-12-20T04:51:13.693Z,7.18
2022-12-20T04:53:49.250Z,7.38
2022-12-20T04:56:28.411Z,8.00
2022-12-20T04:58:57.641Z,7.32
2022-12-20T05:01:24.756Z,6.47
2022-12-20T05:03:52.084Z,5.65
2022-12-20T05:06:18.744Z,8.52
2022-12-20T05:08:45.382Z,8.23
2022-12-20T05:11:12.005Z,7.38
2022-12-20T05:13:38.601Z,8.52
2022-12-20T05:16:05.915Z,7.55
2022-12-20T05:18:32.671Z,8.13
2022-12-20T05:21:19.313Z,7.85
2022-12-20T05:24:05.094Z,10.35
2022-12-20T05:26:34.996Z,6.57
2022-12-20T05:29:01.520Z,6.53
2022-12-20T05:31:28.223Z,6.40
2022-12-20T05:33:55.148Z,7.22
2022-12-20T05:36:21.751Z,7.13
2022-12-20T05:38:48.377Z,7.60
2022-12-20T05:41:15.846Z,9.13
2022-12-20T05:43:42.433Z,8.55
2022-12-20T05:46:11.253Z,7.03
2022-12-20T05:48:38.141Z,6.45
2022-12-20T05:51:05.029Z,6.50
2022-12-20T05:53:31.811Z,7.18
2022-12-20T05:55:59.032Z,6.55
2022-12-20T05:58:25.555Z,7.68
2022-12-20T06:00:52.132Z,8.57
2022-12-20T06:03:19.248Z,6.70
2022-12-20T06:05:46.371Z,8.10
2022-12-20T06:08:13.716Z,7.72
2022-12-20T06:10:41.851Z,7.88
2022-12-20T06:13:12.129Z,7.13
2022-12-20T06:15:38.738Z,8.90
2022-12-20T06:18:06.673Z,8.20
2022-12-20T06:20:34.534Z,7.32
2022-12-20T06:23:01.861Z,7.60
2022-12-20T06:25:29.244Z,7.70
2022-12-20T06:27:56.325Z,6.95
2022-12-20T06:30:26.378Z,8.82
2022-12-20T06:32:55.513Z,6.70
2022-12-20T06:35:22.096Z,8.82
2022-12-20T06:37:48.820Z,8.57
2022-12-20T06:40:15.553Z,8.45
2022-12-20T06:42:42.282Z,7.55
2022-12-20T06:45:09.380Z,7.07
2022-12-20T06:47:36.399Z,6.25
2022-12-20T06:50:04.512Z,7.32
2022-12-20T06:52:31.228Z,7.03
2022-12-20T06:54:59.094Z,7.13
2022-12-20T06:57:25.812Z,7.88
2022-12-20T06:59:52.452Z,6.57
2022-12-20T07:02:19.263Z,6.88
2022-12-20T07:04:46.071Z,6.03
2022-12-20T07:07:13.683Z,7.43
2022-12-20T07:09:41.609Z,6.95
2022-12-20T07:12:09.746Z,7.00
2022-12-20T07:14:36.786Z,7.88
2022-12-20T07:17:05.182Z,5.70
2022-12-20T07:19:32.171Z,7.03
2022-12-20T07:21:59.333Z,5.95
2022-12-20T07:24:26.196Z,6.07
2022-12-20T07:26:52.807Z,6.82
2022-12-20T07:29:19.508Z,6.30
2022-12-20T07:31:46.283Z,7.30
2022-12-20T07:34:13.184Z,6.30
2022-12-20T07:36:39.939Z,5.38
2022-12-20T07:39:06.717Z,9.20
2022-12-20T07:41:33.451Z,6.55
2022-12-20T07:44:00.282Z,7.53
2022-12-20T07:46:27.852Z,5.82
2022-12-20T07:48:55.290Z,6.15
2022-12-20T07:51:27.443Z,7.57
2022-12-20T07:54:04.052Z,8.20
2022-12-20T07:56:41.160Z,5.75
2022-12-20T07:59:11.579Z,6.15
2022-12-20T08:01:39.299Z,5.43
2022-12-20T08:04:11.442Z,5.38
2022-12-20T08:06:40.585Z,5.00
2022-12-20T08:09:09.147Z,6.05
2022-12-20T08:11:37.319Z,5.45
2022-12-20T08:14:07.014Z,6.40
2022-12-20T08:16:34.460Z,5.72
2022-12-20T08:19:01.197Z,4.90
2022-12-20T08:21:29.198Z,6.32
2022-12-20T08:23:56.766Z,6.30
2022-12-20T08:26:23.739Z,5.28
2022-12-20T08:28:50.425Z,6.32
2022-12-20T08:31:17.201Z,7.28
2022-12-20T08:33:43.876Z,6.00
2022-12-20T08:36:12.858Z,6.28
2022-12-20T08:38:40.614Z,6.75
2022-12-20T08:41:12.345Z,5.03
2022-12-20T08:43:41.156Z,5.25
2022-12-20T08:46:10.106Z,5.40
2022-12-20T08:48:36.927Z,6.68
2022-12-20T08:51:06.711Z,5.35
2022-12-20T08:53:35.365Z,6.20
2022-12-20T08:56:11.276Z,5.38
2022-12-20T08:58:39.093Z,4.55
2022-12-20T09:01:08.648Z,5.47
2022-12-20T09:03:36.816Z,5.80
2022-12-20T09:06:09.036Z,5.95
2022-12-20T09:08:36.731Z,6.40
2022-12-20T09:11:35.647Z,6.13
2022-12-20T09:14:02.366Z,7.32
2022-12-20T09:16:32.126Z,8.55
2022-12-20T09:19:05.496Z,5.88
2022-12-20T09:21:34.204Z,5.25
2022-12-20T09:24:00.955Z,8.85
2022-12-20T09:26:27.767Z,5.75
2022-12-20T09:28:54.682Z,6.38
2022-12-20T09:31:24.208Z,6.97
2022-12-20T09:33:54.666Z,6.07
2022-12-20T09:36:23.031Z,5.97
2022-12-20T09:41:34.558Z,5.55
2022-12-20T09:44:12.544Z,6.40
2022-12-20T09:46:41.108Z,6.00
2022-12-20T09:49:15.818Z,5.88
2022-12-20T09:51:56.794Z,7.10
2022-12-20T09:54:40.271Z,5.03
2022-12-20T09:57:36.307Z,5.93
2022-12-20T10:00:03.355Z,8.20
2022-12-20T10:05:41.463Z,6.63
2022-12-20T10:08:17.456Z,6.72
2022-12-20T10:10:52.903Z,6.93
2022-12-20T10:13:47.077Z,5.88
2022-12-20T10:16:38.336Z,8.13
2022-12-20T10:19:35.551Z,6.55
2022-12-20T10:22:02.096Z,5.47
2022-12-20T10:24:33.748Z,6.78
2022-12-20T10:27:14.345Z,7.65
2022-12-20T10:32:18.741Z,7.30
2022-12-20T10:35:21.461Z,6.45
2022-12-20T10:38:08.461Z,7.75
2022-12-20T10:41:10.297Z,7.57
2022-12-20T10:43:25.711Z,6.70
2022-12-20T10:46:08.257Z,6.75
2022-12-20T10:48:37.527Z,8.20
2022-12-20T10:51:15.522Z,7.82
2022-12-20T10:54:01.424Z,7.65
2022-12-20T10:56:36.531Z,6.60
2022-12-20T10:59:18.265Z,8.25
2022-12-20T11:01:47.286Z,6.75
2022-12-20T11:04:36.215Z,7.55
2022-12-20T11:07:23.498Z,9.10
2022-12-20T11:09:56.651Z,7.32
2022-12-20T11:12:23.510Z,6.57
2022-12-20T11:14:50.346Z,7.13
2022-12-20T11:17:24.090Z,9.50
2022-12-20T11:20:20.426Z,6.57
2022-12-20T11:22:53.519Z,7.55
2022-12-20T11:26:10.843Z,8.75
2022-12-20T11:28:54.021Z,6.55
2022-12-20T11:31:25.194Z,7.25
2022-12-20T11:33:57.675Z,7.32
2022-12-20T11:36:42.413Z,8.90
2022-12-20T11:39:29.251Z,7.63
2022-12-20T11:45:06.907Z,7.18
2022-12-20T11:48:01.073Z,7.22
2022-12-20T11:50:54.310Z,7.95
2022-12-20T11:53:31.106Z,7.85
2022-12-20T11:56:03.387Z,8.65
2022-12-20T11:58:39.531Z,9.40
2022-12-20T12:01:14.361Z,7.43
2022-12-20T12:03:48.797Z,7.75
2022-12-20T12:06:26.418Z,8.70
2022-12-20T12:09:08.687Z,8.23
2022-12-20T12:12:05.962Z,8.18
2022-12-20T12:14:59.484Z,8.32
2022-12-20T12:17:34.446Z,9.57
2022-12-20T12:20:18.994Z,8.38
2022-12-20T12:22:48.846Z,7.45
2022-12-20T12:25:18.165Z,8.55
2022-12-20T12:27:45.554Z,8.45
2022-12-20T12:30:16.692Z,7.63
2022-12-20T12:32:58.238Z,7.80
2022-12-20T12:35:46.521Z,8.65
2022-12-20T12:38:41.604Z,8.75
2022-12-20T12:41:46.183Z,8.45
2022-12-20T12:44:18.764Z,8.00
2022-12-20T12:46:48.300Z,7.05
2022-12-20T12:49:24.020Z,8.07
2022-12-20T12:51:54.528Z,7.57
2022-12-20T12:54:40.787Z,10.18
2022-12-20T12:57:14.552Z,8.75
2022-12-20T12:59:46.260Z,8.88
2022-12-20T13:02:16.672Z,8.05
2022-12-20T13:05:10.724Z,8.18
2022-12-20T13:07:37.317Z,8.38
2022-12-20T13:10:10.077Z,8.95
2022-12-20T13:12:36.644Z,8.85
2022-12-20T13:15:21.614Z,8.15
2022-12-20T13:17:58.580Z,8.73
2022-12-20T13:20:38.414Z,8.38
2022-12-20T13:23:08.062Z,8.60
2022-12-20T13:25:40.212Z,10.68
2022-12-20T13:28:18.706Z,9.82
2022-12-20T13:30:47.324Z,8.65
2022-12-20T13:33:17.653Z,9.48
2022-12-20T13:35:56.166Z,8.45
2022-12-20T13:38:58.928Z,11.27
2022-12-20T13:41:39.754Z,9.32
2022-12-20T13:44:24.433Z,8.07
2022-12-20T13:47:17.932Z,9.15
2022-12-20T13:49:44.830Z,8.30
2022-12-20T13:52:11.420Z,10.15
2022-12-20T13:54:44.211Z,8.73
2022-12-20T13:57:17.284Z,9.30
2022-12-20T13:59:49.607Z,9.27
2022-12-20T14:02:22.859Z,8.80
2022-12-20T14:04:59.355Z,8.73
2022-12-20T14:07:28.402Z,8.30
2022-12-20T14:09:58.892Z,10.00
2022-12-20T14:12:35.962Z,11.70
2022-12-20T14:15:03.464Z,8.40
2022-12-20T14:17:32.953Z,9.65
2022-12-20T14:20:23.302Z,9.95
2022-12-20T14:23:04.541Z,9.07
2022-12-20T14:25:44.353Z,9.35
2022-12-20T14:28:26.844Z,8.95
2022-12-20T14:30:55.422Z,9.70
2022-12-20T14:33:30.387Z,9.75
2022-12-20T14:35:57.626Z,9.88
2022-12-20T14:38:33.395Z,9.27
2022-12-20T14:41:00.043Z,9.02
2022-12-20T14:43:34.566Z,8.90
2022-12-20T14:46:17.009Z,8.50
2022-12-20T14:48:44.169Z,9.65
2022-12-20T14:51:11.775Z,10.52
2022-12-20T14:53:40.486Z,9.60
2022-12-20T14:56:15.401Z,9.48
2022-12-20T14:58:42.301Z,8.70
2022-12-20T15:01:27.255Z,8.95
2022-12-20T15:03:59.777Z,10.55
2022-12-20T15:06:44.286Z,10.32
2022-12-20T15:09:10.960Z,10.27
2022-12-20T15:11:38.572Z,9.93
2022-12-20T15:14:31.342Z,9.60
2022-12-20T15:16:58.402Z,10.35
2022-12-20T15:19:25.147Z,12.10
2022-12-20T15:21:52.276Z,10.30
2022-12-20T15:24:26.893Z,11.32
2022-12-20T15:26:54.197Z,10.00
2022-12-20T15:29:28.717Z,10.95
2022-12-20T15:32:21.535Z,10.55
2022-12-20T15:34:48.138Z,10.85
2022-12-20T15:37:18.597Z,14.18
2022-12-20T15:39:46.005Z,11.02
2022-12-20T15:42:17.278Z,12.48
2022-12-20T15:44:44.687Z,13.57
2022-12-20T15:47:13.886Z,12.82
2022-12-20T15:49:44.742Z,11.02
2022-12-20T15:52:21.834Z,11.40
2022-12-20T15:54:48.535Z,13.85
2022-12-20T15:57:16.001Z,18.42
2022-12-20T16:04:59.021Z,11.52
2022-12-20T16:07:26.462Z,12.25
2022-12-20T16:09:53.063Z,11.45
2022-12-20T16:12:25.427Z,14.40
2022-12-20T16:14:52.076Z,14.05
2022-12-20T16:17:18.736Z,17.77
2022-12-20T16:19:46.253Z,15.13
2022-12-20T16:22:18.390Z,14.70
2022-12-20T16:24:45.226Z,11.25
2022-12-20T16:27:11.995Z,12.23
2022-12-20T16:29:38.767Z,12.85
2022-12-20T16:32:24.084Z,13.05
2022-12-20T16:34:51.655Z,14.20
2022-12-20T16:37:18.468Z,14.43
2022-12-20T16:39:45.379Z,15.68
2022-12-20T16:42:17.732Z,12.80
2022-12-20T16:44:45.731Z,12.82
2022-12-20T16:47:13.174Z,14.80
2022-12-20T16:49:44.520Z,13.55
2022-12-20T16:52:18.735Z,13.57
2022-12-20T16:54:45.553Z,14.32
2022-12-20T16:57:12.295Z,13.55
2022-12-20T16:59:39.087Z,13.93
2022-12-20T17:02:26.316Z,12.75
2022-12-20T17:04:53.227Z,14.10
2022-12-20T17:07:20.512Z,12.50
2022-12-20T17:09:47.570Z,12.10
2022-12-20T17:12:16.214Z,13.05
2022-12-20T17:14:42.881Z,13.80
2022-12-20T17:17:09.828Z,15.07
2022-12-20T17:19:36.877Z,14.57
2022-12-20T17:24:48.624Z,13.18
2022-12-20T17:27:15.293Z,17.60
2022-12-20T17:29:42.069Z,13.77
2022-12-20T17:32:22.154Z,12.80
2022-12-20T17:34:52.141Z,13.90
2022-12-20T17:37:18.849Z,18.55
2022-12-20T17:39:45.503Z,12.80
2022-12-20T17:42:16.064Z,14.35
2022-12-20T17:44:42.945Z,14.65
2022-12-20T17:47:09.562Z,14.77
2022-12-20T17:49:36.150Z,16.23
2022-12-20T17:52:02.853Z,14.98
2022-12-20T17:54:35.129Z,14.50
2022-12-20T17:57:05.924Z,14.85
2022-12-20T17:59:32.494Z,15.70
2022-12-20T18:01:59.512Z,15.55
2022-12-20T18:04:26.747Z,15.05
2022-12-20T18:06:53.540Z,14.50
2022-12-20T18:09:21.615Z,15.55
2022-12-20T18:11:48.650Z,17.27
2022-12-20T18:14:15.720Z,15.48
2022-12-20T18:16:42.863Z,15.40
2022-12-20T18:19:16.577Z,17.77
2022-12-20T18:21:43.177Z,15.85
2022-12-20T18:24:14.282Z,16.80
2022-12-20T18:26:41.049Z,17.40
2022-12-20T18:29:07.635Z,16.13
2022-12-20T18:31:35.321Z,18.40
2022-12-20T18:34:03.059Z,16.92
2022-12-20T18:36:32.231Z,18.00
2022-12-20T18:39:00.323Z,17.63
2022-12-20T18:41:29.416Z,19.02
2022-12-20T18:44:01.557Z,18.15
2022-12-20T18:46:28.693Z,19.00
2022-12-20T18:48:56.937Z,20.90
2022-12-20T18:51:26.507Z,19.50
2022-12-20T18:53:55.573Z,21.58
2022-12-20T18:56:25.380Z,21.80
2022-12-20T18:58:52.856Z,19.67
2022-12-20T19:01:34.113Z,21.33
2022-12-20T19:04:03.306Z,20.55
2022-12-20T19:06:31.864Z,20.00
2022-12-20T19:09:02.938Z,20.73
2022-12-20T19:11:29.573Z,27.98
2022-12-20T19:13:56.750Z,22.98
2022-12-20T19:16:26.478Z,22.83
2022-12-20T19:18:53.008Z,23.30
2022-12-20T19:21:23.201Z,22.25
2022-12-20T19:23:52.517Z,22.45
2022-12-20T19:26:21.245Z,19.45
2022-12-20T19:28:47.949Z,21.08
2022-12-20T19:31:21.536Z,21.63
2022-12-20T19:33:50.058Z,22.42
2022-12-20T19:36:20.307Z,22.00
2022-12-20T19:38:51.043Z,23.30
2022-12-20T19:41:18.835Z,22.45
2022-12-20T19:43:47.597Z,21.70
2022-12-20T19:46:15.191Z,22.95
2022-12-20T19:48:42.120Z,24.27
2022-12-20T19:51:11.841Z,23.58
2022-12-20T19:53:39.748Z,25.52
2022-12-20T19:56:08.677Z,24.90
2022-12-20T19:58:36.599Z,25.23
2022-12-20T20:01:05.095Z,34.47
2022-12-20T20:05:59.577Z,23.10
2022-12-20T20:08:26.259Z,27.63
2022-12-20T20:10:57.477Z,26.65
2022-12-20T20:13:25.024Z,26.88
2022-12-20T20:15:53.111Z,26.67
2022-12-20T20:18:20.102Z,39.78
2022-12-20T20:20:47.686Z,28.70
2022-12-20T20:23:15.251Z,28.80
2022-12-20T20:25:46.717Z,31.38
2022-12-20T20:28:13.422Z,31.15
2022-12-20T20:30:41.417Z,35.63
2022-12-20T20:33:09.734Z,36.17
2022-12-20T20:35:36.246Z,33.80
2022-12-20T20:38:02.779Z,33.38
2022-12-20T20:40:29.292Z,31.88
2022-12-20T20:42:56.082Z,37.13
2022-12-20T20:45:22.613Z,33.13
2022-12-20T20:47:49.191Z,32.55
2022-12-20T20:50:15.835Z,33.22
2022-12-20T20:52:42.338Z,43.42
2022-12-20T20:55:09.568Z,37.63
2022-12-20T20:57:36.521Z,35.17
2022-12-20T21:00:04.404Z,36.53
2022-12-20T21:02:31.083Z,41.17
2022-12-20T21:05:46.896Z,44.35
2022-12-20T21:07:45.576Z,53.72
2022-12-20T21:10:12.750Z,38.85
2022-12-20T21:12:39.524Z,43.60
2022-12-20T21:15:24.647Z,40.88
2022-12-20T21:17:51.402Z,39.67
2022-12-20T21:20:22.193Z,39.53
2022-12-20T21:22:52.235Z,43.05
2022-12-20T21:25:19.244Z,39.28
2022-12-20T21:27:45.756Z,38.53
2022-12-20T21:30:12.763Z,41.85
2022-12-20T21:32:39.367Z,39.40
2022-12-20T21:35:06.377Z,41.92
2022-12-20T21:37:32.937Z,36.80
2022-12-20T21:39:59.526Z,39.05
2022-12-20T21:42:26.427Z,46.35
2022-12-20T21:44:52.915Z,43.85
2022-12-20T21:47:20.103Z,42.28
2022-12-20T21:49:46.645Z,36.22
2022-12-20T21:52:13.263Z,41.03
2022-12-20T21:54:40.552Z,35.47
2022-12-20T21:57:07.044Z,34.88
2022-12-20T21:59:33.662Z,37.90
2022-12-20T22:02:00.418Z,40.13
2022-12-20T22:04:27.294Z,38.58
2022-12-20T22:06:54.174Z,40.85
2022-12-20T22:09:20.738Z,39.63
2022-12-20T22:11:48.626Z,40.75
2022-12-20T22:14:15.672Z,39.80
2022-12-20T22:16:43.539Z,39.58
2022-12-20T22:19:13.700Z,37.00
2022-12-20T22:21:40.498Z,40.28
2022-12-20T22:24:07.455Z,39.90
2022-12-20T22:26:34.102Z,32.67
2022-12-20T22:29:03.764Z,37.80
2022-12-20T22:31:30.723Z,39.20
2022-12-20T22:33:58.356Z,37.92
2022-12-20T22:36:26.359Z,38.20
2022-12-20T22:38:54.154Z,39.45
2022-12-20T22:41:30.205Z,43.35
2022-12-20T22:43:59.144Z,41.72
2022-12-20T22:46:25.854Z,37.72
2022-12-20T22:48:52.422Z,43.03
2022-12-20T22:51:21.780Z,40.03
2022-12-20T22:53:49.152Z,40.42
2022-12-20T22:56:18.793Z,37.60
2022-12-20T22:58:45.670Z,37.72
2022-12-20T23:01:16.246Z,38.95
2022-12-20T23:03:43.329Z,39.67
2022-12-20T23:06:13.736Z,37.80
2022-12-20T23:08:40.500Z,41.28
2022-12-20T23:11:36.770Z,36.03
2022-12-20T23:14:22.594Z,41.78
2022-12-20T23:16:49.624Z,35.03
2022-12-20T23:19:16.239Z,37.85
2022-12-20T23:22:01.209Z,35.75
2022-12-20T23:24:27.802Z,37.17
2022-12-20T23:26:54.292Z,39.00
2022-12-20T23:29:20.855Z,40.60
2022-12-20T23:31:47.787Z,41.00
2022-12-20T23:34:14.393Z,38.55
2022-12-20T23:36:40.896Z,38.22
2022-12-20T23:39:08.165Z,38.13
2022-12-20T23:41:35.129Z,37.85
2022-12-20T23:44:10.044Z,38.72
2022-12-20T23:46:36.604Z,34.60
2022-12-20T23:49:03.094Z,36.42
2022-12-20T23:51:29.597Z,38.20
2022-12-20T23:53:56.169Z,38.28
2022-12-20T23:56:23.008Z,36.72
2022-12-20T23:58:54.358Z,36.13
